sensor_id;sensor_type;location;lat;lon;timestamp;pressure;altitude;pressure_sealevel;temperature;humidity
73671;BME280;61968;48.178;11.566;2023-12-20T00:00:18;95743.50;;;5.22;32.29
73671;BME280;61968;48.178;11.566;2023-12-20T00:02:44;95742.75;;;5.34;31.93
73671;BME280;61968;48.178;11.566;2023-12-20T00:05:12;95732.03;;;5.29;32.12
73671;BME280;61968;48.178;11.566;2023-12-20T00:07:39;95730.47;;;5.48;32.05
73671;BME280;61968;48.178;11.566;2023-12-20T00:10:05;95723.81;;;5.52;31.97
73671;BME280;61968;48.178;11.566;2023-12-20T00:12:33;95717.59;;;5.73;32.12
73671;BME280;61968;48.178;11.566;2023-12-20T00:15:00;95721.03;;;5.60;31.87
73671;BME280;61968;48.178;11.566;2023-12-20T00:17:26;95710.94;;;5.64;32.29
73671;BME280;61968;48.178;11.566;2023-12-20T00:19:53;95713.38;;;5.72;32.19
73671;BME280;61968;48.178;11.566;2023-12-20T00:22:19;95711.53;;;5.66;32.07
73671;BME280;61968;48.178;11.566;2023-12-20T00:24:45;95719.63;;;5.98;31.90
73671;BME280;61968;48.178;11.566;2023-12-20T00:27:12;95714.63;;;5.90;32.02
73671;BME280;61968;48.178;11.566;2023-12-20T00:29:40;95710.56;;;5.80;32.31
73671;BME280;61968;48.178;11.566;2023-12-20T00:32:08;95720.44;;;5.65;32.84
73671;BME280;61968;48.178;11.566;2023-12-20T00:34:34;95718.16;;;5.49;32.85
73671;BME280;61968;48.178;11.566;2023-12-20T00:37:00;95711.31;;;5.61;32.59
73671;BME280;61968;48.178;11.566;2023-12-20T00:39:27;95704.47;;;5.60;32.44
73671;BME280;61968;48.178;11.566;2023-12-20T00:41:53;95701.22;;;5.58;31.62
73671;BME280;61968;48.178;11.566;2023-12-20T00:44:20;95699.78;;;5.35;32.24
73671;BME280;61968;48.178;11.566;2023-12-20T00:46:47;95692.72;;;5.36;32.17
73671;BME280;61968;48.178;11.566;2023-12-20T00:49:14;95688.84;;;5.25;31.85
73671;BME280;61968;48.178;11.566;2023-12-20T00:51:40;95692.72;;;5.29;32.33
73671;BME280;61968;48.178;11.566;2023-12-20T00:54:07;95692.31;;;5.26;31.62
73671;BME280;61968;48.178;11.566;2023-12-20T00:56:34;95684.78;;;4.68;32.34
73671;BME280;61968;48.178;11.566;2023-12-20T00:59:01;95682.31;;;4.95;32.63
73671;BME280;61968;48.178;11.566;2023-12-20T01:01:27;95678.25;;;4.92;31.91
73671;BME280;61968;48.178;11.566;2023-12-20T01:03:55;95680.78;;;5.20;31.96
73671;BME280;61968;48.178;11.566;2023-12-20T01:06:21;95676.44;;;5.60;31.32
73671;BME280;61968;48.178;11.566;2023-12-20T01:08:47;95674.16;;;5.31;31.28
73671;BME280;61968;48.178;11.566;2023-12-20T01:11:14;95661.25;;;5.36;31.70
73671;BME280;61968;48.178;11.566;2023-12-20T01:13:41;95657.25;;;5.47;31.19
73671;BME280;61968;48.178;11.566;2023-12-20T01:16:10;95653.03;;;5.59;31.17
73671;BME280;61968;48.178;11.566;2023-12-20T01:18:37;95662.63;;;5.25;31.29
73671;BME280;61968;48.178;11.566;2023-12-20T01:21:05;95662.06;;;5.36;31.55
73671;BME280;61968;48.178;11.566;2023-12-20T01:23:32;95666.53;;;5.49;31.75
73671;BME280;61968;48.178;11.566;2023-12-20T01:25:59;95661.19;;;5.03;32.35
73671;BME280;61968;48.178;11.566;2023-12-20T01:28:26;95661.03;;;5.31;32.08
73671;BME280;61968;48.178;11.566;2023-12-20T01:30:52;95648.56;;;5.40;31.86
73671;BME280;61968;48.178;11.566;2023-12-20T01:33:18;95650.38;;;5.39;31.96
73671;BME280;61968;48.178;11.566;2023-12-20T01:35:45;95647.94;;;5.31;32.16
73671;BME280;61968;48.178;11.566;2023-12-20T01:38:13;95640.91;;;5.45;32.08
73671;BME280;61968;48.178;11.566;2023-12-20T01:40:39;95631.00;;;5.33;33.38
73671;BME280;61968;48.178;11.566;2023-12-20T01:43:07;95648.53;;;5.20;32.41
73671;BME280;61968;48.178;11.566;2023-12-20T01:45:34;95637.03;;;5.34;32.45
73671;BME280;61968;48.178;11.566;2023-12-20T01:48:01;95641.72;;;5.45;32.71
73671;BME280;61968;48.178;11.566;2023-12-20T01:50:28;95631.63;;;5.35;32.78
73671;BME280;61968;48.178;11.566;2023-12-20T01:52:56;95631.66;;;5.69;32.49
73671;BME280;61968;48.178;11.566;2023-12-20T01:55:25;95632.44;;;5.69;32.11
73671;BME280;61968;48.178;11.566;2023-12-20T01:57:53;95621.34;;;5.54;32.77
73671;BME280;61968;48.178;11.566;2023-12-20T02:00:21;95609.03;;;5.81;32.27
73671;BME280;61968;48.178;11.566;2023-12-20T02:02:50;95610.84;;;5.41;32.67
73671;BME280;61968;48.178;11.566;2023-12-20T02:05:19;95613.69;;;5.59;32.84
73671;BME280;61968;48.178;11.566;2023-12-20T02:07:49;95602.41;;;5.65;32.70
73671;BME280;61968;48.178;11.566;2023-12-20T02:10:16;95597.53;;;5.35;33.05
73671;BME280;61968;48.178;11.566;2023-12-20T02:12:44;95586.66;;;5.65;33.03
73671;BME280;61968;48.178;11.566;2023-12-20T02:15:11;95575.31;;;5.84;32.05
73671;BME280;61968;48.178;11.566;2023-12-20T02:17:38;95575.94;;;5.93;31.73
73671;BME280;61968;48.178;11.566;2023-12-20T02:20:06;95575.75;;;5.75;32.17
73671;BME280;61968;48.178;11.566;2023-12-20T02:22:34;95579.38;;;5.87;32.27
73671;BME280;61968;48.178;11.566;2023-12-20T02:25:01;95580.16;;;5.88;32.28
73671;BME280;61968;48.178;11.566;2023-12-20T02:27:28;95572.13;;;5.43;32.57
73671;BME280;61968;48.178;11.566;2023-12-20T02:29:55;95578.19;;;5.63;32.41
73671;BME280;61968;48.178;11.566;2023-12-20T02:32:23;95582.38;;;5.71;32.41
73671;BME280;61968;48.178;11.566;2023-12-20T02:34:54;95578.38;;;5.68;32.41
73671;BME280;61968;48.178;11.566;2023-12-20T02:37:22;95568.28;;;5.65;32.51
73671;BME280;61968;48.178;11.566;2023-12-20T02:39:50;95572.53;;;5.66;32.76
73671;BME280;61968;48.178;11.566;2023-12-20T02:42:16;95569.09;;;5.32;33.32
73671;BME280;61968;48.178;11.566;2023-12-20T02:44:43;95542.28;;;5.44;33.65
73671;BME280;61968;48.178;11.566;2023-12-20T02:47:10;95557.16;;;5.03;34.54
73671;BME280;61968;48.178;11.566;2023-12-20T02:49:36;95545.50;;;5.32;34.45
73671;BME280;61968;48.178;11.566;2023-12-20T02:52:04;95538.03;;;5.49;34.49
73671;BME280;61968;48.178;11.566;2023-12-20T02:54:30;95545.09;;;5.62;34.29
73671;BME280;61968;48.178;11.566;2023-12-20T02:57:00;95543.69;;;5.40;34.82
73671;BME280;61968;48.178;11.566;2023-12-20T02:59:26;95549.94;;;5.52;34.95
73671;BME280;61968;48.178;11.566;2023-12-20T03:01:53;95547.72;;;5.69;34.58
73671;BME280;61968;48.178;11.566;2023-12-20T03:04:20;95551.34;;;5.41;35.20
73671;BME280;61968;48.178;11.566;2023-12-20T03:06:46;95549.50;;;5.61;35.03
73671;BME280;61968;48.178;11.566;2023-12-20T03:09:13;95554.78;;;5.48;35.41
73671;BME280;61968;48.178;11.566;2023-12-20T03:11:40;95561.63;;;5.36;36.19
73671;BME280;61968;48.178;11.566;2023-12-20T03:14:08;95558.59;;;5.52;35.83
73671;BME280;61968;48.178;11.566;2023-12-20T03:16:34;95561.84;;;5.74;35.51
73671;BME280;61968;48.178;11.566;2023-12-20T03:19:02;95555.97;;;5.72;35.62
73671;BME280;61968;48.178;11.566;2023-12-20T03:21:29;95554.97;;;5.53;36.09
73671;BME280;61968;48.178;11.566;2023-12-20T03:23:55;95551.50;;;4.86;38.34
73671;BME280;61968;48.178;11.566;2023-12-20T03:26:22;95548.66;;;4.88;38.01
73671;BME280;61968;48.178;11.566;2023-12-20T03:28:48;95553.16;;;5.34;37.94
73671;BME280;61968;48.178;11.566;2023-12-20T03:31:16;95560.84;;;5.35;37.63
73671;BME280;61968;48.178;11.566;2023-12-20T03:33:43;95568.44;;;4.90;38.50
73671;BME280;61968;48.178;11.566;2023-12-20T03:36:10;95572.09;;;5.09;38.36
73671;BME280;61968;48.178;11.566;2023-12-20T03:38:36;95575.09;;;5.13;38.94
73671;BME280;61968;48.178;11.566;2023-12-20T03:41:04;95576.94;;;5.19;39.26
73671;BME280;61968;48.178;11.566;2023-12-20T03:43:30;95593.91;;;5.43;38.20
73671;BME280;61968;48.178;11.566;2023-12-20T03:45:57;95590.66;;;5.21;38.94
73671;BME280;61968;48.178;11.566;2023-12-20T03:48:25;95609.94;;;4.94;39.74
73671;BME280;61968;48.178;11.566;2023-12-20T03:50:52;95602.63;;;4.82;40.52
73671;BME280;61968;48.178;11.566;2023-12-20T03:53:18;95610.56;;;4.96;40.59
73671;BME280;61968;48.178;11.566;2023-12-20T03:55:45;95615.25;;;5.20;40.30
73671;BME280;61968;48.178;11.566;2023-12-20T03:58:12;95614.69;;;5.45;39.52
73671;BME280;61968;48.178;11.566;2023-12-20T04:00:39;95616.13;;;4.79;41.51
73671;BME280;61968;48.178;11.566;2023-12-20T04:03:07;95611.09;;;4.78;42.08
73671;BME280;61968;48.178;11.566;2023-12-20T04:05:35;95615.91;;;4.74;42.67
73671;BME280;61968;48.178;11.566;2023-12-20T04:08:02;95619.78;;;4.85;42.75
73671;BME280;61968;48.178;11.566;2023-12-20T04:10:28;95611.28;;;4.76;43.32
73671;BME280;61968;48.178;11.566;2023-12-20T04:12:56;95615.03;;;5.02;42.95
73671;BME280;61968;48.178;11.566;2023-12-20T04:15:23;95613.38;;;4.46;44.25
73671;BME280;61968;48.178;11.566;2023-12-20T04:17:49;95614.16;;;4.46;45.08
73671;BME280;61968;48.178;11.566;2023-12-20T04:20:16;95609.88;;;4.32;45.59
73671;BME280;61968;48.178;11.566;2023-12-20T04:22:44;95607.56;;;4.57;45.23
73671;BME280;61968;48.178;11.566;2023-12-20T04:25:11;95603.50;;;4.89;44.52
73671;BME280;61968;48.178;11.566;2023-12-20T04:27:37;95601.72;;;5.10;44.33
73671;BME280;61968;48.178;11.566;2023-12-20T04:30:05;95600.59;;;4.71;45.08
73671;BME280;61968;48.178;11.566;2023-12-20T04:32:32;95608.06;;;4.33;46.97
73671;BME280;61968;48.178;11.566;2023-12-20T04:34:59;95604.47;;;4.40;46.55
73671;BME280;61968;48.178;11.566;2023-12-20T04:37:25;95614.47;;;4.23;46.69
73671;BME280;61968;48.178;11.566;2023-12-20T04:39:53;95608.94;;;4.88;45.62
73671;BME280;61968;48.178;11.566;2023-12-20T04:42:20;95614.50;;;4.78;45.69
73671;BME280;61968;48.178;11.566;2023-12-20T04:44:46;95615.59;;;4.90;45.91
73671;BME280;61968;48.178;11.566;2023-12-20T04:47:16;95611.81;;;5.13;45.14
73671;BME280;61968;48.178;11.566;2023-12-20T04:49:42;95628.28;;;4.87;46.53
73671;BME280;61968;48.178;11.566;2023-12-20T04:52:09;95632.22;;;4.76;46.75
73671;BME280;61968;48.178;11.566;2023-12-20T04:54:35;95645.03;;;4.99;46.86
73671;BME280;61968;48.178;11.566;2023-12-20T04:57:10;95644.25;;;4.57;47.57
73671;BME280;61968;48.178;11.566;2023-12-20T04:59:37;95654.75;;;4.22;48.84
73671;BME280;61968;48.178;11.566;2023-12-20T05:02:08;95651.44;;;4.49;48.96
73671;BME280;61968;48.178;11.566;2023-12-20T05:04:35;95654.19;;;4.75;48.70
73671;BME280;61968;48.178;11.566;2023-12-20T05:07:02;95657.91;;;4.18;50.09
73671;BME280;61968;48.178;11.566;2023-12-20T05:09:30;95661.75;;;4.50;49.58
73671;BME280;61968;48.178;11.566;2023-12-20T05:11:56;95661.09;;;4.41;50.33
73671;BME280;61968;48.178;11.566;2023-12-20T05:14:24;95667.38;;;4.54;49.86
73671;BME280;61968;48.178;11.566;2023-12-20T05:16:51;95657.84;;;4.39;50.63
73671;BME280;61968;48.178;11.566;2023-12-20T05:19:18;95663.59;;;4.28;50.71
73671;BME280;61968;48.178;11.566;2023-12-20T05:21:45;95663.00;;;3.98;51.20
73671;BME280;61968;48.178;11.566;2023-12-20T05:24:12;95659.53;;;4.19;51.12
73671;BME280;61968;48.178;11.566;2023-12-20T05:26:41;95668.63;;;4.23;51.40
73671;BME280;61968;48.178;11.566;2023-12-20T05:29:07;95674.91;;;4.29;50.57
73671;BME280;61968;48.178;11.566;2023-12-20T05:31:35;95676.91;;;4.27;51.00
73671;BME280;61968;48.178;11.566;2023-12-20T05:34:02;95684.22;;;4.10;51.81
73671;BME280;61968;48.178;11.566;2023-12-20T05:36:29;95673.56;;;4.11;51.42
73671;BME280;61968;48.178;11.566;2023-12-20T05:38:55;95681.75;;;4.02;60.15
73671;BME280;61968;48.178;11.566;2023-12-20T05:41:21;95692.31;;;4.50;52.75
73671;BME280;61968;48.178;11.566;2023-12-20T05:43:48;95689.28;;;4.46;56.37
73671;BME280;61968;48.178;11.566;2023-12-20T05:46:17;95689.75;;;4.91;57.32
73671;BME280;61968;48.178;11.566;2023-12-20T05:48:45;95691.75;;;4.54;53.73
73671;BME280;61968;48.178;11.566;2023-12-20T05:51:14;95698.59;;;3.71;53.23
73671;BME280;61968;48.178;11.566;2023-12-20T05:53:40;95694.88;;;4.36;51.97
73671;BME280;61968;48.178;11.566;2023-12-20T05:56:07;95707.72;;;4.31;51.06
73671;BME280;61968;48.178;11.566;2023-12-20T05:58:33;95707.19;;;3.65;53.23
73671;BME280;61968;48.178;11.566;2023-12-20T06:01:00;95700.97;;;4.15;51.89
73671;BME280;61968;48.178;11.566;2023-12-20T06:03:27;95715.81;;;4.08;51.58
73671;BME280;61968;48.178;11.566;2023-12-20T06:05:54;95719.16;;;3.95;51.77
73671;BME280;61968;48.178;11.566;2023-12-20T06:08:21;95723.44;;;3.82;52.16
73671;BME280;61968;48.178;11.566;2023-12-20T06:10:48;95720.81;;;3.39;52.19
73671;BME280;61968;48.178;11.566;2023-12-20T06:13:14;95725.38;;;3.51;52.69
73671;BME280;61968;48.178;11.566;2023-12-20T06:15:41;95727.13;;;3.66;52.02
73671;BME280;61968;48.178;11.566;2023-12-20T06:18:07;95727.22;;;3.79;51.96
73671;BME280;61968;48.178;11.566;2023-12-20T06:20:34;95730.91;;;3.63;52.02
73671;BME280;61968;48.178;11.566;2023-12-20T06:23:02;95732.88;;;3.40;52.49
73671;BME280;61968;48.178;11.566;2023-12-20T06:25:28;95739.25;;;3.73;51.55
73671;BME280;61968;48.178;11.566;2023-12-20T06:27:55;95743.88;;;2.84;54.38
73671;BME280;61968;48.178;11.566;2023-12-20T06:30:21;95744.66;;;3.29;54.33
73671;BME280;61968;48.178;11.566;2023-12-20T06:32:50;95748.25;;;3.49;53.02
73671;BME280;61968;48.178;11.566;2023-12-20T06:35:16;95755.81;;;2.63;54.32
73671;BME280;61968;48.178;11.566;2023-12-20T06:37:43;95759.97;;;2.88;54.13
73671;BME280;61968;48.178;11.566;2023-12-20T06:40:11;95768.44;;;2.90;53.61
73671;BME280;61968;48.178;11.566;2023-12-20T06:42:38;95770.34;;;2.81;54.58
73671;BME280;61968;48.178;11.566;2023-12-20T06:45:04;95763.03;;;2.91;55.30
73671;BME280;61968;48.178;11.566;2023-12-20T06:47:31;95763.91;;;3.13;53.09
73671;BME280;61968;48.178;11.566;2023-12-20T06:49:58;95764.19;;;3.33;53.28
73671;BME280;61968;48.178;11.566;2023-12-20T06:52:25;95770.28;;;3.40;52.70
73671;BME280;61968;48.178;11.566;2023-12-20T06:54:51;95777.38;;;2.80;53.32
73671;BME280;61968;48.178;11.566;2023-12-20T06:57:19;95770.13;;;2.97;54.04
73671;BME280;61968;48.178;11.566;2023-12-20T06:59:46;95779.91;;;2.36;54.68
73671;BME280;61968;48.178;11.566;2023-12-20T07:02:12;95775.34;;;2.38;55.53
73671;BME280;61968;48.178;11.566;2023-12-20T07:04:39;95784.53;;;2.63;54.88
73671;BME280;61968;48.178;11.566;2023-12-20T07:07:06;95793.63;;;2.68;53.96
73671;BME280;61968;48.178;11.566;2023-12-20T07:09:33;95793.78;;;3.25;52.59
73671;BME280;61968;48.178;11.566;2023-12-20T07:11:59;95804.28;;;2.96;53.27
73671;BME280;61968;48.178;11.566;2023-12-20T07:14:27;95809.03;;;3.22;52.56
73671;BME280;61968;48.178;11.566;2023-12-20T07:16:54;95813.09;;;3.39;52.60
73671;BME280;61968;48.178;11.566;2023-12-20T07:19:21;95816.34;;;2.82;53.17
73671;BME280;61968;48.178;11.566;2023-12-20T07:21:47;95818.59;;;3.15;53.21
73671;BME280;61968;48.178;11.566;2023-12-20T07:24:14;95820.84;;;3.03;53.03
73671;BME280;61968;48.178;11.566;2023-12-20T07:26:40;95816.44;;;3.03;53.20
73671;BME280;61968;48.178;11.566;2023-12-20T07:29:07;95821.09;;;2.63;53.50
73671;BME280;61968;48.178;11.566;2023-12-20T07:31:38;95826.66;;;2.60;53.39
73671;BME280;61968;48.178;11.566;2023-12-20T07:34:04;95827.69;;;2.74;54.10
73671;BME280;61968;48.178;11.566;2023-12-20T07:36:31;95825.63;;;2.99;53.05
73671;BME280;61968;48.178;11.566;2023-12-20T07:38:57;95831.75;;;3.06;52.04
73671;BME280;61968;48.178;11.566;2023-12-20T07:41:24;95827.69;;;3.04;52.49
73671;BME280;61968;48.178;11.566;2023-12-20T07:43:51;95831.47;;;3.16;53.00
73671;BME280;61968;48.178;11.566;2023-12-20T07:46:20;95830.22;;;3.42;51.79
73671;BME280;61968;48.178;11.566;2023-12-20T07:48:53;95834.69;;;2.74;52.68
73671;BME280;61968;48.178;11.566;2023-12-20T07:51:19;95844.44;;;2.95;53.13
73671;BME280;61968;48.178;11.566;2023-12-20T07:53:46;95836.94;;;2.77;52.87
73671;BME280;61968;48.178;11.566;2023-12-20T07:56:14;95845.88;;;3.12;52.32
73671;BME280;61968;48.178;11.566;2023-12-20T07:58:41;95845.63;;;2.77;52.90
73671;BME280;61968;48.178;11.566;2023-12-20T08:01:07;95846.22;;;2.79;52.77
73671;BME280;61968;48.178;11.566;2023-12-20T08:03:34;95838.81;;;2.53;53.91
73671;BME280;61968;48.178;11.566;2023-12-20T08:06:02;95845.78;;;2.76;53.01
73671;BME280;61968;48.178;11.566;2023-12-20T08:08:29;95859.00;;;2.36;53.89
73671;BME280;61968;48.178;11.566;2023-12-20T08:10:55;95855.94;;;2.33;55.37
73671;BME280;61968;48.178;11.566;2023-12-20T08:13:25;95867.53;;;2.30;54.64
73671;BME280;61968;48.178;11.566;2023-12-20T08:15:52;95862.31;;;2.53;54.77
73671;BME280;61968;48.178;11.566;2023-12-20T08:18:19;95872.75;;;2.07;55.91
73671;BME280;61968;48.178;11.566;2023-12-20T08:20:45;95855.78;;;2.49;55.31
73671;BME280;61968;48.178;11.566;2023-12-20T08:23:15;95851.81;;;2.38;54.80
73671;BME280;61968;48.178;11.566;2023-12-20T08:25:41;95866.84;;;2.36;54.78
73671;BME280;61968;48.178;11.566;2023-12-20T08:28:08;95863.47;;;2.28;54.21
73671;BME280;61968;48.178;11.566;2023-12-20T08:30:34;95861.66;;;1.82;55.96
73671;BME280;61968;48.178;11.566;2023-12-20T08:33:01;95869.59;;;1.89;55.08
73671;BME280;61968;48.178;11.566;2023-12-20T08:35:28;95858.50;;;2.18;55.53
73671;BME280;61968;48.178;11.566;2023-12-20T08:37:57;95865.44;;;2.26;55.70
73671;BME280;61968;48.178;11.566;2023-12-20T08:40:24;95862.97;;;2.09;54.79
73671;BME280;61968;48.178;11.566;2023-12-20T08:42:51;95863.13;;;2.31;54.86
73671;BME280;61968;48.178;11.566;2023-12-20T08:45:18;95861.31;;;2.54;54.09
73671;BME280;61968;48.178;11.566;2023-12-20T08:47:45;95856.56;;;2.73;53.71
73671;BME280;61968;48.178;11.566;2023-12-20T08:50:11;95860.47;;;3.06;53.17
73671;BME280;61968;48.178;11.566;2023-12-20T08:52:38;95860.38;;;2.85;53.56
73671;BME280;61968;48.178;11.566;2023-12-20T08:55:06;95867.16;;;3.24;52.50
73671;BME280;61968;48.178;11.566;2023-12-20T08:57:34;95862.75;;;3.39;52.26
73671;BME280;61968;48.178;11.566;2023-12-20T09:00:00;95875.09;;;3.45;51.47
73671;BME280;61968;48.178;11.566;2023-12-20T09:02:28;95867.22;;;4.82;67.57
73671;BME280;61968;48.178;11.566;2023-12-20T09:04:54;95865.13;;;5.69;54.58
73671;BME280;61968;48.178;11.566;2023-12-20T09:07:23;95860.56;;;6.04;48.16
73671;BME280;61968;48.178;11.566;2023-12-20T09:09:49;95859.19;;;5.12;47.28
73671;BME280;61968;48.178;11.566;2023-12-20T09:12:17;95868.84;;;3.76;50.39
73671;BME280;61968;48.178;11.566;2023-12-20T09:14:48;95867.38;;;3.73;51.33
73671;BME280;61968;48.178;11.566;2023-12-20T09:17:15;95870.66;;;3.75;50.78
73671;BME280;61968;48.178;11.566;2023-12-20T09:19:42;95865.75;;;3.36;52.64
73671;BME280;61968;48.178;11.566;2023-12-20T09:22:11;95872.28;;;3.02;52.50
73671;BME280;61968;48.178;11.566;2023-12-20T09:24:37;95869.31;;;2.91;53.53
73671;BME280;61968;48.178;11.566;2023-12-20T09:27:05;95860.56;;;2.98;53.45
73671;BME280;61968;48.178;11.566;2023-12-20T09:29:32;95863.66;;;2.26;56.27
73671;BME280;61968;48.178;11.566;2023-12-20T09:31:59;95877.72;;;3.30;55.07
73671;BME280;61968;48.178;11.566;2023-12-20T09:34:26;95873.25;;;3.75;52.19
73671;BME280;61968;48.178;11.566;2023-12-20T09:36:53;95866.94;;;3.70;55.07
73671;BME280;61968;48.178;11.566;2023-12-20T09:39:20;95878.09;;;3.93;50.82
73671;BME280;61968;48.178;11.566;2023-12-20T09:41:54;95877.75;;;4.39;56.63
73671;BME280;61968;48.178;11.566;2023-12-20T09:44:23;95873.25;;;5.87;54.77
73671;BME280;61968;48.178;11.566;2023-12-20T09:46:50;95872.16;;;6.23;45.86
73671;BME280;61968;48.178;11.566;2023-12-20T09:49:19;95866.78;;;4.51;48.71
73671;BME280;61968;48.178;11.566;2023-12-20T09:51:46;95864.44;;;4.19;49.91
73671;BME280;61968;48.178;11.566;2023-12-20T09:54:14;95866.66;;;3.80;53.28
73671;BME280;61968;48.178;11.566;2023-12-20T09:56:43;95869.56;;;3.25;52.59
73671;BME280;61968;48.178;11.566;2023-12-20T09:59:10;95859.31;;;3.24;52.68
73671;BME280;61968;48.178;11.566;2023-12-20T10:01:38;95861.63;;;2.89;53.95
73671;BME280;61968;48.178;11.566;2023-12-20T10:04:06;95848.53;;;3.27;52.57
73671;BME280;61968;48.178;11.566;2023-12-20T10:06:36;95843.28;;;3.12;52.46
73671;BME280;61968;48.178;11.566;2023-12-20T10:09:02;95843.09;;;2.46;54.49
73671;BME280;61968;48.178;11.566;2023-12-20T10:11:30;95851.09;;;2.82;53.88
73671;BME280;61968;48.178;11.566;2023-12-20T10:13:58;95847.34;;;3.15;53.61
73671;BME280;61968;48.178;11.566;2023-12-20T10:16:25;95843.28;;;2.97;53.20
73671;BME280;61968;48.178;11.566;2023-12-20T10:18:52;95852.84;;;3.20;53.48
73671;BME280;61968;48.178;11.566;2023-12-20T10:21:19;95842.63;;;3.54;52.32
73671;BME280;61968;48.178;11.566;2023-12-20T10:23:47;95841.50;;;3.42;52.45
73671;BME280;61968;48.178;11.566;2023-12-20T10:26:19;95839.38;;;3.52;52.77
73671;BME280;61968;48.178;11.566;2023-12-20T10:28:46;95838.69;;;3.80;52.66
73671;BME280;61968;48.178;11.566;2023-12-20T10:31:26;95835.00;;;4.11;51.36
73671;BME280;61968;48.178;11.566;2023-12-20T10:33:52;95849.59;;;3.62;52.47
73671;BME280;61968;48.178;11.566;2023-12-20T10:36:19;95847.06;;;3.09;53.99
73671;BME280;61968;48.178;11.566;2023-12-20T10:38:50;95837.41;;;3.10;54.28
73671;BME280;61968;48.178;11.566;2023-12-20T10:41:21;95833.03;;;3.11;54.69
73671;BME280;61968;48.178;11.566;2023-12-20T10:43:50;95829.94;;;3.22;54.47
73671;BME280;61968;48.178;11.566;2023-12-20T10:46:17;95831.75;;;3.51;54.09
73671;BME280;61968;48.178;11.566;2023-12-20T10:48:45;95831.72;;;2.92;54.53
73671;BME280;61968;48.178;11.566;2023-12-20T10:51:14;95830.66;;;2.86;54.15
73671;BME280;61968;48.178;11.566;2023-12-20T10:53:44;95832.47;;;3.45;54.20
73671;BME280;61968;48.178;11.566;2023-12-20T10:56:16;95832.19;;;3.54;53.22
73671;BME280;61968;48.178;11.566;2023-12-20T10:58:43;95823.47;;;3.47;53.08
73671;BME280;61968;48.178;11.566;2023-12-20T11:01:13;95830.38;;;3.55;53.04
73671;BME280;61968;48.178;11.566;2023-12-20T11:03:45;95818.22;;;3.47;52.80
73671;BME280;61968;48.178;11.566;2023-12-20T11:06:36;95822.91;;;3.37;53.76
73671;BME280;61968;48.178;11.566;2023-12-20T11:09:13;95821.69;;;3.69;52.59
73671;BME280;61968;48.178;11.566;2023-12-20T11:12:05;95823.34;;;3.55;53.28
73671;BME280;61968;48.178;11.566;2023-12-20T11:14:41;95824.44;;;3.46;52.76
73671;BME280;61968;48.178;11.566;2023-12-20T11:17:09;95824.72;;;3.51;52.99
73671;BME280;61968;48.178;11.566;2023-12-20T11:22:27;95809.06;;;3.73;52.33
73671;BME280;61968;48.178;11.566;2023-12-20T11:24:54;95806.06;;;3.97;52.20
73671;BME280;61968;48.178;11.566;2023-12-20T11:27:25;95806.06;;;3.76;52.01
73671;BME280;61968;48.178;11.566;2023-12-20T11:29:53;95799.97;;;3.69;52.69
73671;BME280;61968;48.178;11.566;2023-12-20T11:32:30;95791.41;;;3.60;52.17
73671;BME280;61968;48.178;11.566;2023-12-20T11:34:58;95789.84;;;3.44;52.42
73671;BME280;61968;48.178;11.566;2023-12-20T11:37:28;95785.16;;;3.76;51.11
73671;BME280;61968;48.178;11.566;2023-12-20T11:40:00;95789.31;;;3.34;53.19
73671;BME280;61968;48.178;11.566;2023-12-20T11:42:32;95789.75;;;3.38;51.97
73671;BME280;61968;48.178;11.566;2023-12-20T11:44:59;95783.75;;;3.80;51.60
73671;BME280;61968;48.178;11.566;2023-12-20T11:47:25;95770.50;;;4.03;51.35
73671;BME280;61968;48.178;11.566;2023-12-20T11:49:52;95774.25;;;3.94;51.00
73671;BME280;61968;48.178;11.566;2023-12-20T11:52:21;95762.72;;;4.10;50.70
73671;BME280;61968;48.178;11.566;2023-12-20T11:54:51;95770.69;;;4.23;50.13
73671;BME280;61968;48.178;11.566;2023-12-20T11:57:18;95772.38;;;3.66;51.13
73671;BME280;61968;48.178;11.566;2023-12-20T11:59:45;95771.63;;;3.94;50.97
73671;BME280;61968;48.178;11.566;2023-12-20T12:02:12;95760.47;;;4.07;50.24
73671;BME280;61968;48.178;11.566;2023-12-20T12:04:41;95765.22;;;3.96;50.16
73671;BME280;61968;48.178;11.566;2023-12-20T12:07:07;95760.53;;;4.13;50.66
73671;BME280;61968;48.178;11.566;2023-12-20T12:09:34;95764.84;;;3.57;51.27
73671;BME280;61968;48.178;11.566;2023-12-20T12:12:01;95761.94;;;3.88;51.00
73671;BME280;61968;48.178;11.566;2023-12-20T12:14:30;95760.84;;;4.04;50.85
73671;BME280;61968;48.178;11.566;2023-12-20T12:16:58;95765.59;;;4.15;50.48
73671;BME280;61968;48.178;11.566;2023-12-20T12:19:26;95753.31;;;3.94;50.09
73671;BME280;61968;48.178;11.566;2023-12-20T12:22:04;95759.47;;;3.43;51.28
73671;BME280;61968;48.178;11.566;2023-12-20T12:24:31;95757.56;;;3.37;51.39
73671;BME280;61968;48.178;11.566;2023-12-20T12:26:57;95756.56;;;3.53;51.14
73671;BME280;61968;48.178;11.566;2023-12-20T12:29:25;95758.59;;;3.58;50.49
73671;BME280;61968;48.178;11.566;2023-12-20T12:31:51;95747.25;;;3.65;50.75
73671;BME280;61968;48.178;11.566;2023-12-20T12:34:19;95755.34;;;3.55;51.30
73671;BME280;61968;48.178;11.566;2023-12-20T12:36:46;95747.34;;;3.78;50.99
73671;BME280;61968;48.178;11.566;2023-12-20T12:39:13;95746.28;;;3.94;50.46
73671;BME280;61968;48.178;11.566;2023-12-20T12:41:41;95737.31;;;4.04;50.39
73671;BME280;61968;48.178;11.566;2023-12-20T12:44:08;95739.94;;;3.82;49.78
73671;BME280;61968;48.178;11.566;2023-12-20T12:46:35;95737.47;;;3.95;50.83
73671;BME280;61968;48.178;11.566;2023-12-20T12:49:02;95729.97;;;4.14;50.28
73671;BME280;61968;48.178;11.566;2023-12-20T12:51:30;95744.78;;;4.07;49.34
73671;BME280;61968;48.178;11.566;2023-12-20T12:53:57;95743.63;;;3.66;50.42
73671;BME280;61968;48.178;11.566;2023-12-20T12:56:23;95752.97;;;3.39;51.73
73671;BME280;61968;48.178;11.566;2023-12-20T12:58:50;95756.31;;;3.69;51.64
73671;BME280;61968;48.178;11.566;2023-12-20T13:01:16;95759.81;;;3.40;51.71
73671;BME280;61968;48.178;11.566;2023-12-20T13:03:43;95776.06;;;3.06;51.38